createdAt,value
2019-03-29T00:01:09.901Z,99.90
2019-03-29T00:03:40.830Z,99.90
2019-03-29T00:06:11.973Z,99.90
2019-03-29T00:08:42.913Z,99.90
2019-03-29T00:11:13.931Z,99.90
2019-03-29T00:13:44.993Z,99.90
2019-03-29T00:16:15.934Z,99.90
2019-03-29T00:18:46.907Z,99.90
2019-03-29T00:21:17.890Z,99.90
2019-03-29T00:23:49.142Z,99.90
2019-03-29T00:26:20.202Z,99.90
2019-03-29T00:28:51.226Z,99.90
2019-03-29T00:31:22.194Z,99.90
2019-03-29T00:33:53.129Z,99.90
2019-03-29T00:36:24.069Z,99.90
2019-03-29T00:38:55.076Z,99.90
2019-03-29T00:41:25.938Z,99.90
2019-03-29T00:43:56.880Z,99.90
2019-03-29T00:46:28.030Z,99.90
2019-03-29T00:48:59.113Z,99.90
2019-03-29T00:51:30.113Z,99.90
2019-03-29T00:54:01.937Z,99.90
2019-03-29T00:56:33.222Z,99.90
2019-03-29T00:59:04.149Z,99.90
2019-03-29T01:01:35.159Z,99.90
2019-03-29T01:04:06.139Z,99.90
2019-03-29T01:06:37.381Z,99.90
2019-03-29T01:09:08.940Z,99.90
2019-03-29T01:11:40.903Z,99.90
2019-03-29T01:14:11.944Z,99.90
2019-03-29T01:16:42.873Z,99.90
2019-03-29T01:19:13.810Z,99.90
2019-03-29T01:21:44.919Z,99.90
2019-03-29T01:24:15.982Z,99.90
2019-03-29T01:26:47.137Z,99.90
2019-03-29T01:29:18.145Z,99.90
2019-03-29T01:31:49.118Z,99.90
2019-03-29T01:34:20.183Z,99.90
2019-03-29T01:36:51.102Z,99.90
2019-03-29T01:39:21.936Z,99.90
2019-03-29T01:41:53.096Z,99.90
2019-03-29T01:44:24.237Z,99.90
2019-03-29T01:46:55.192Z,99.90
2019-03-29T01:49:26.179Z,99.90
2019-03-29T01:51:57.211Z,99.90
2019-03-29T01:54:28.082Z,99.90
2019-03-29T01:56:59.033Z,99.90
2019-03-29T01:59:30.030Z,99.90
2019-03-29T02:02:01.010Z,99.90
2019-03-29T02:04:31.958Z,99.90
2019-03-29T02:07:02.980Z,99.90
2019-03-29T02:09:34.002Z,99.90
2019-03-29T02:12:04.974Z,99.90
2019-03-29T02:14:35.903Z,99.90
2019-03-29T02:17:06.839Z,99.90
2019-03-29T02:19:37.789Z,99.90
2019-03-29T02:22:09.072Z,99.90
2019-03-29T02:24:40.203Z,99.90
2019-03-29T02:27:11.111Z,99.90
2019-03-29T02:29:42.124Z,99.90
2019-03-29T02:32:13.103Z,99.90
2019-03-29T02:34:44.253Z,99.90
2019-03-29T02:37:15.351Z,99.90
2019-03-29T02:39:46.223Z,99.90
2019-03-29T02:42:17.151Z,99.90
2019-03-29T02:44:48.109Z,99.90
2019-03-29T02:47:19.063Z,99.90
2019-03-29T02:49:50.047Z,99.90
2019-03-29T02:52:21.020Z,99.90
2019-03-29T02:54:52.018Z,99.90
2019-03-29T02:57:22.891Z,99.90
2019-03-29T02:59:53.903Z,99.90
2019-03-29T03:02:26.611Z,99.90
2019-03-29T03:04:57.450Z,99.90
2019-03-29T03:07:28.867Z,99.90
2019-03-29T03:09:59.735Z,99.90
2019-03-29T03:12:30.714Z,99.90
2019-03-29T03:15:01.829Z,99.90
2019-03-29T03:17:32.830Z,99.90
2019-03-29T03:20:03.708Z,99.90
2019-03-29T03:22:34.632Z,99.90
2019-03-29T03:25:06.000Z,99.90
2019-03-29T03:27:37.174Z,99.90
2019-03-29T03:30:09.556Z,99.90
2019-03-29T03:32:40.557Z,99.90
2019-03-29T03:35:12.487Z,99.90
2019-03-29T03:37:43.446Z,99.90
2019-03-29T03:40:14.794Z,99.90
2019-03-29T03:42:45.740Z,99.90
2019-03-29T03:45:16.855Z,99.90
2019-03-29T03:47:47.781Z,99.90
2019-03-29T03:50:46.295Z,99.90
2019-03-29T03:53:17.249Z,99.90
2019-03-29T03:55:48.393Z,99.90
2019-03-29T03:58:21.043Z,99.90
2019-03-29T04:00:55.087Z,99.90
2019-03-29T04:03:26.742Z,99.90
2019-03-29T04:05:58.208Z,99.90
2019-03-29T04:08:29.527Z,99.90
2019-03-29T04:11:00.680Z,99.90
2019-03-29T04:13:31.607Z,99.90
2019-03-29T04:16:02.562Z,99.90
2019-03-29T04:18:33.568Z,99.90
2019-03-29T04:21:04.454Z,99.90
2019-03-29T04:23:35.571Z,99.90
2019-03-29T04:26:06.524Z,99.90
2019-03-29T04:28:37.522Z,99.90
2019-03-29T04:31:08.424Z,99.90
2019-03-29T04:33:39.443Z,99.90
2019-03-29T04:36:10.381Z,99.90
2019-03-29T04:38:41.202Z,99.90
2019-03-29T04:41:12.218Z,99.90
2019-03-29T04:43:43.181Z,99.90
2019-03-29T04:46:14.152Z,99.90
2019-03-29T04:48:45.064Z,99.90
2019-03-29T04:51:15.907Z,99.90
2019-03-29T04:53:46.914Z,99.90
2019-03-29T04:56:17.777Z,99.90
2019-03-29T04:58:48.730Z,99.90
2019-03-29T05:01:19.930Z,99.90
2019-03-29T05:03:50.874Z,99.90
2019-03-29T05:06:21.745Z,99.90
2019-03-29T05:08:52.686Z,99.90
2019-03-29T05:11:23.614Z,99.90
2019-03-29T05:13:54.461Z,99.90
2019-03-29T05:16:25.466Z,99.90
2019-03-29T05:18:56.330Z,99.90
2019-03-29T05:21:27.270Z,99.90
2019-03-29T05:23:58.422Z,99.90
2019-03-29T05:26:29.430Z,99.90
2019-03-29T05:29:00.301Z,99.90
2019-03-29T05:31:31.229Z,99.90
2019-03-29T05:34:02.384Z,99.90
2019-03-29T05:36:33.387Z,99.90
2019-03-29T05:39:04.825Z,99.90
2019-03-29T05:41:35.804Z,99.90
2019-03-29T05:44:06.821Z,99.90
2019-03-29T05:46:37.836Z,99.90
2019-03-29T05:49:08.868Z,99.90
2019-03-29T05:51:39.881Z,99.90
2019-03-29T05:54:10.881Z,99.90
2019-03-29T05:56:41.761Z,99.90
2019-03-29T05:59:12.684Z,99.90
2019-03-29T06:01:43.628Z,99.90
2019-03-29T06:04:14.461Z,99.90
2019-03-29T06:06:45.526Z,99.90
2019-03-29T06:09:16.617Z,99.90
2019-03-29T06:11:47.801Z,99.90
2019-03-29T06:14:18.794Z,99.90
2019-03-29T06:16:49.678Z,99.90
2019-03-29T06:19:20.722Z,99.90
2019-03-29T06:21:51.648Z,99.90
2019-03-29T06:24:22.595Z,99.90
2019-03-29T06:26:53.597Z,99.90
2019-03-29T06:29:24.466Z,99.90
2019-03-29T06:31:55.401Z,99.90
2019-03-29T06:34:26.342Z,99.90
2019-03-29T06:36:58.998Z,99.90
2019-03-29T06:39:30.805Z,99.90
2019-03-29T06:42:02.026Z,99.90
2019-03-29T06:44:32.966Z,99.90
2019-03-29T06:47:03.915Z,99.90
2019-03-29T06:49:35.022Z,99.90
2019-03-29T06:52:05.984Z,99.90
2019-03-29T06:54:36.935Z,99.90
2019-03-29T06:57:07.870Z,99.90
2019-03-29T06:59:38.802Z,99.90
2019-03-29T07:02:09.814Z,99.90
2019-03-29T07:04:40.682Z,99.90
2019-03-29T07:07:11.625Z,99.90
2019-03-29T07:09:42.613Z,99.90
2019-03-29T07:12:13.712Z,99.90
2019-03-29T07:14:44.642Z,99.90
2019-03-29T07:17:15.702Z,99.90
2019-03-29T07:19:46.627Z,99.90
2019-03-29T07:22:18.533Z,99.90
2019-03-29T07:24:49.702Z,99.90
2019-03-29T07:27:20.642Z,99.90
2019-03-29T07:29:51.515Z,99.90
2019-03-29T07:32:22.762Z,99.90
2019-03-29T07:34:53.770Z,99.90
2019-03-29T07:37:24.730Z,99.90
2019-03-29T07:39:55.783Z,99.90
2019-03-29T07:42:26.740Z,99.90
2019-03-29T07:44:57.724Z,99.90
2019-03-29T07:47:28.601Z,99.90
2019-03-29T07:49:59.565Z,99.90
2019-03-29T07:52:31.098Z,99.90
2019-03-29T07:55:02.033Z,99.90
2019-03-29T07:57:32.963Z,99.90
2019-03-29T08:00:04.105Z,99.90
2019-03-29T08:02:35.213Z,99.90
2019-03-29T08:05:06.302Z,99.90
2019-03-29T08:07:37.228Z,99.90
2019-03-29T08:10:08.280Z,99.90
2019-03-29T08:12:40.695Z,99.90
2019-03-29T08:15:11.797Z,99.90
2019-03-29T08:17:42.727Z,99.90
2019-03-29T08:20:38.255Z,99.90
2019-03-29T08:22:46.355Z,99.50
2019-03-29T08:25:17.386Z,98.80
2019-03-29T08:27:48.335Z,99.90
2019-03-29T08:30:19.392Z,99.90
2019-03-29T08:32:50.521Z,98.50
2019-03-29T08:35:21.458Z,98.30
2019-03-29T08:37:52.466Z,97.20
2019-03-29T08:40:23.336Z,97.10
2019-03-29T08:42:54.266Z,96.70
2019-03-29T08:45:25.244Z,94.90
2019-03-29T08:47:56.153Z,93.30
2019-03-29T08:50:27.163Z,88.30
2019-03-29T08:52:58.122Z,74.10
2019-03-29T08:55:29.063Z,65.20
2019-03-29T08:58:00.002Z,62.20
2019-03-29T09:00:34.442Z,60.50
2019-03-29T09:03:05.983Z,62.90
2019-03-29T09:05:39.298Z,62.30
2019-03-29T09:08:10.309Z,65.50
2019-03-29T09:10:41.330Z,62.10
2019-03-29T09:13:12.610Z,60.80
2019-03-29T09:15:43.582Z,59.40
2019-03-29T09:18:14.553Z,55.80
2019-03-29T09:20:45.425Z,52.90
2019-03-29T09:23:16.364Z,50.20
2019-03-29T09:25:47.407Z,47.10
2019-03-29T09:28:18.346Z,46.80
2019-03-29T09:30:49.352Z,45.50
2019-03-29T09:33:20.326Z,43.00
2019-03-29T09:35:51.368Z,43.60
2019-03-29T09:38:22.300Z,45.30
2019-03-29T09:40:58.881Z,45.10
2019-03-29T09:43:26.796Z,45.20
2019-03-29T09:45:57.879Z,46.70
2019-03-29T09:48:28.870Z,45.60
2019-03-29T09:51:00.073Z,47.40
2019-03-29T09:53:31.225Z,47.50
2019-03-29T09:56:02.250Z,47.60
2019-03-29T09:58:33.197Z,46.10
2019-03-29T10:01:04.238Z,43.50
2019-03-29T10:03:36.201Z,41.40
2019-03-29T10:06:07.143Z,38.80
2019-03-29T10:08:38.761Z,39.70
2019-03-29T10:11:09.621Z,38.80
2019-03-29T10:13:40.640Z,36.60
2019-03-29T10:16:11.502Z,35.60
2019-03-29T10:18:42.494Z,35.00
2019-03-29T10:21:16.889Z,33.70
2019-03-29T10:23:46.029Z,37.60
2019-03-29T10:26:16.910Z,36.20
2019-03-29T10:28:47.845Z,34.90
2019-03-29T10:31:31.501Z,34.60
2019-03-29T10:33:51.631Z,33.30
2019-03-29T10:36:22.504Z,32.60
2019-03-29T10:38:53.465Z,31.50
2019-03-29T10:41:26.492Z,30.00
2019-03-29T10:43:57.357Z,30.10
2019-03-29T10:46:28.297Z,29.60
2019-03-29T10:48:59.237Z,28.40
2019-03-29T10:51:30.210Z,28.10
2019-03-29T10:54:01.193Z,27.90
2019-03-29T10:56:34.435Z,29.30
2019-03-29T10:59:04.733Z,29.60
2019-03-29T11:01:35.775Z,28.90
2019-03-29T11:04:06.785Z,31.30
2019-03-29T11:06:37.767Z,30.80
2019-03-29T11:09:09.734Z,29.00
2019-03-29T11:11:45.694Z,28.30
2019-03-29T11:14:18.479Z,27.10
2019-03-29T11:16:49.406Z,26.80
2019-03-29T11:19:20.347Z,25.90
2019-03-29T11:21:51.345Z,25.70
2019-03-29T11:24:22.290Z,25.80
2019-03-29T11:26:53.164Z,24.70
2019-03-29T11:29:24.309Z,24.70
2019-03-29T11:31:56.257Z,25.40
2019-03-29T11:34:27.198Z,26.10
2019-03-29T11:36:58.137Z,26.60
2019-03-29T11:39:29.084Z,25.90
2019-03-29T11:42:03.374Z,25.20
2019-03-29T11:44:32.599Z,24.90
2019-03-29T11:47:03.528Z,24.50
2019-03-29T11:49:34.479Z,24.60
2019-03-29T11:52:05.631Z,24.30
2019-03-29T11:54:36.665Z,24.60
2019-03-29T11:57:07.603Z,24.70
2019-03-29T11:59:40.154Z,24.50
2019-03-29T12:02:30.294Z,25.90
2019-03-29T12:04:49.521Z,25.80
2019-03-29T12:07:20.681Z,25.30
2019-03-29T12:09:51.680Z,25.80
2019-03-29T12:12:34.807Z,25.50
2019-03-29T12:15:06.588Z,26.10
2019-03-29T12:17:37.601Z,26.60
2019-03-29T12:20:08.980Z,26.40
2019-03-29T12:22:39.817Z,25.70
2019-03-29T12:25:12.449Z,25.40
2019-03-29T12:27:43.346Z,24.70
2019-03-29T12:30:30.473Z,25.30
2019-03-29T12:32:47.372Z,24.90
2019-03-29T12:35:18.301Z,24.70
2019-03-29T12:37:49.309Z,24.30
2019-03-29T12:40:20.428Z,24.80
2019-03-29T12:42:51.428Z,24.70
2019-03-29T12:45:23.453Z,24.70
2019-03-29T12:47:54.338Z,24.70
2019-03-29T12:50:25.294Z,24.00
2019-03-29T12:52:56.334Z,24.90
2019-03-29T12:55:28.645Z,25.00
2019-03-29T12:57:59.513Z,25.00
2019-03-29T13:00:30.733Z,24.30
2019-03-29T13:03:01.705Z,24.10
2019-03-29T13:05:32.650Z,24.80
2019-03-29T13:08:03.733Z,23.60
2019-03-29T13:10:35.030Z,23.00
2019-03-29T13:13:06.173Z,22.90
2019-03-29T13:15:37.316Z,23.40
2019-03-29T13:18:08.258Z,23.60
2019-03-29T13:20:39.270Z,25.80
2019-03-29T13:23:10.238Z,25.70
2019-03-29T13:25:41.394Z,25.90
2019-03-29T13:28:12.539Z,26.30
2019-03-29T13:30:43.464Z,27.60
2019-03-29T13:33:14.414Z,27.90
2019-03-29T13:35:45.363Z,28.10
2019-03-29T13:38:16.456Z,27.70
2019-03-29T13:40:47.321Z,26.70
2019-03-29T13:43:18.271Z,26.40
2019-03-29T13:45:49.418Z,26.80
2019-03-29T13:48:20.423Z,28.20
2019-03-29T13:50:51.203Z,28.80
2019-03-29T13:53:22.300Z,29.30
2019-03-29T13:55:54.796Z,29.30
2019-03-29T13:58:25.784Z,29.20
2019-03-29T14:00:56.776Z,28.60
2019-03-29T14:03:27.718Z,29.30
2019-03-29T14:05:58.657Z,28.60
2019-03-29T14:08:29.594Z,29.10
2019-03-29T14:11:00.702Z,28.80
2019-03-29T14:13:31.677Z,27.90
2019-03-29T14:16:02.858Z,28.00
2019-03-29T14:18:36.836Z,28.60
2019-03-29T14:21:07.846Z,29.00
2019-03-29T14:23:38.810Z,28.30
2019-03-29T14:26:09.970Z,27.70
2019-03-29T14:28:40.971Z,27.10
2019-03-29T14:31:11.895Z,26.60
2019-03-29T14:33:42.774Z,26.70
2019-03-29T14:36:13.713Z,26.20
2019-03-29T14:38:44.549Z,26.90
2019-03-29T14:41:15.560Z,28.10
2019-03-29T14:43:46.427Z,28.70
2019-03-29T14:46:17.441Z,28.90
2019-03-29T14:48:48.407Z,29.50
2019-03-29T14:51:19.417Z,29.80
2019-03-29T14:53:50.467Z,29.80
2019-03-29T14:56:21.327Z,31.70
2019-03-29T14:58:52.265Z,31.10
2019-03-29T15:01:23.425Z,30.80
2019-03-29T15:03:54.667Z,31.10
2019-03-29T15:06:25.592Z,30.40
2019-03-29T15:08:56.809Z,29.80
2019-03-29T15:11:27.782Z,29.30
2019-03-29T15:13:58.937Z,29.50
2019-03-29T15:16:29.938Z,29.50
2019-03-29T15:19:00.802Z,29.80
2019-03-29T15:21:31.759Z,29.80
2019-03-29T15:24:02.896Z,29.90
2019-03-29T15:26:33.893Z,29.80
2019-03-29T15:29:04.887Z,30.30
2019-03-29T15:31:35.806Z,30.40
2019-03-29T15:34:07.077Z,31.50
2019-03-29T15:36:37.989Z,31.80
2019-03-29T15:39:10.066Z,31.20
2019-03-29T15:41:41.065Z,31.20
2019-03-29T15:44:12.238Z,31.30
2019-03-29T15:46:43.176Z,32.40
2019-03-29T15:49:14.024Z,31.70
2019-03-29T15:51:45.018Z,32.70
2019-03-29T15:54:15.917Z,32.80
2019-03-29T15:56:46.976Z,33.40
2019-03-29T15:59:17.973Z,33.80
2019-03-29T16:01:49.118Z,35.60
2019-03-29T16:04:20.113Z,35.60
2019-03-29T16:06:50.997Z,35.10
2019-03-29T16:09:21.937Z,35.70
2019-03-29T16:11:52.952Z,35.00
2019-03-29T16:14:23.802Z,35.20
2019-03-29T16:16:54.754Z,35.90
2019-03-29T16:19:25.548Z,36.50
2019-03-29T16:21:56.529Z,35.80
2019-03-29T16:24:27.541Z,36.20
2019-03-29T16:26:58.416Z,36.80
2019-03-29T16:29:29.344Z,37.10
2019-03-29T16:32:00.285Z,36.80
2019-03-29T16:34:31.221Z,37.90
2019-03-29T16:37:02.289Z,39.10
2019-03-29T16:39:33.205Z,39.70
2019-03-29T16:42:04.152Z,40.60
2019-03-29T16:44:35.135Z,40.60
2019-03-29T16:47:06.242Z,40.70
2019-03-29T16:49:37.160Z,41.50
2019-03-29T16:52:08.201Z,41.80
2019-03-29T16:54:39.466Z,42.90
2019-03-29T16:57:10.459Z,43.70
2019-03-29T16:59:41.328Z,46.70
2019-03-29T17:02:12.269Z,47.80
2019-03-29T17:04:43.210Z,48.30
2019-03-29T17:07:14.098Z,49.40
2019-03-29T17:09:45.049Z,49.90
2019-03-29T17:12:16.025Z,50.70
2019-03-29T17:14:46.976Z,52.00
2019-03-29T17:17:18.128Z,52.80
2019-03-29T17:19:49.112Z,56.00
2019-03-29T17:22:20.089Z,58.30
2019-03-29T17:24:56.910Z,62.10
2019-03-29T17:27:23.602Z,69.60
2019-03-29T17:29:54.553Z,79.00
2019-03-29T17:32:25.858Z,90.30
2019-03-29T17:34:56.732Z,96.10
2019-03-29T17:37:27.676Z,99.40
2019-03-29T17:39:58.668Z,99.90
2019-03-29T17:42:29.717Z,99.90
2019-03-29T17:45:00.693Z,99.90
2019-03-29T17:47:31.635Z,99.90
2019-03-29T17:50:02.782Z,99.90
2019-03-29T17:52:33.870Z,99.90
2019-03-29T17:55:04.969Z,99.90
2019-03-29T17:57:35.927Z,99.90
2019-03-29T18:00:09.189Z,99.90
2019-03-29T18:02:40.139Z,99.90
2019-03-29T18:05:11.272Z,99.90
2019-03-29T18:07:42.221Z,99.90
2019-03-29T18:10:13.416Z,99.90
2019-03-29T18:12:44.399Z,99.90
2019-03-29T18:15:15.948Z,99.90
2019-03-29T18:17:47.321Z,99.90
2019-03-29T18:20:19.319Z,99.90
2019-03-29T18:22:50.312Z,99.90
2019-03-29T18:25:21.242Z,99.90
2019-03-29T18:27:52.282Z,99.90
2019-03-29T18:30:39.820Z,99.90
2019-03-29T18:33:12.080Z,99.90
2019-03-29T18:35:43.121Z,99.90
2019-03-29T18:38:14.056Z,99.90
2019-03-29T18:40:45.078Z,99.90
2019-03-29T18:43:16.114Z,99.90
2019-03-29T18:45:47.117Z,99.90
2019-03-29T18:48:18.125Z,99.90
2019-03-29T18:50:49.072Z,99.90
2019-03-29T18:53:20.074Z,99.90
2019-03-29T18:55:50.977Z,99.90
2019-03-29T18:58:21.933Z,99.90
2019-03-29T19:00:52.818Z,99.90
2019-03-29T19:03:23.757Z,99.90
2019-03-29T19:05:54.769Z,99.90
2019-03-29T19:08:25.634Z,99.90
2019-03-29T19:10:56.633Z,99.90
2019-03-29T19:13:27.515Z,99.90
2019-03-29T19:15:58.537Z,99.90
2019-03-29T19:18:30.325Z,99.90
2019-03-29T19:21:01.326Z,99.90
2019-03-29T19:23:32.293Z,99.90
2019-03-29T19:26:03.451Z,99.90
2019-03-29T19:28:34.458Z,99.90
2019-03-29T19:31:05.416Z,99.90
2019-03-29T19:33:36.362Z,99.90
2019-03-29T19:36:07.292Z,99.90
2019-03-29T19:38:38.233Z,99.90
2019-03-29T19:41:09.253Z,99.90
2019-03-29T19:43:40.151Z,99.90
2019-03-29T19:46:11.055Z,99.90
2019-03-29T19:48:41.990Z,99.90
2019-03-29T19:51:12.929Z,99.90
2019-03-29T19:53:44.039Z,99.90
2019-03-29T19:56:15.000Z,99.90
2019-03-29T19:58:45.991Z,99.90
2019-03-29T20:01:16.942Z,99.90
2019-03-29T20:03:47.850Z,99.90
2019-03-29T20:06:18.865Z,99.90
2019-03-29T20:08:49.831Z,99.90
2019-03-29T20:11:20.759Z,99.90
2019-03-29T20:13:51.753Z,99.90
2019-03-29T20:16:22.697Z,99.90
2019-03-29T20:18:54.908Z,99.90
2019-03-29T20:21:25.832Z,99.90
2019-03-29T20:23:56.772Z,99.90
2019-03-29T20:26:27.722Z,99.90
2019-03-29T20:28:58.548Z,99.90
2019-03-29T20:31:29.664Z,99.90
2019-03-29T20:34:00.583Z,99.90
2019-03-29T20:36:31.688Z,99.90
2019-03-29T20:39:02.793Z,99.90
2019-03-29T20:41:33.767Z,99.90
2019-03-29T20:44:04.809Z,99.90
2019-03-29T20:46:35.769Z,99.90
2019-03-29T20:49:06.687Z,99.90
2019-03-29T20:51:37.684Z,99.90
2019-03-29T20:54:08.567Z,99.90
2019-03-29T20:56:39.569Z,99.90
2019-03-29T20:59:10.445Z,99.90
2019-03-29T21:01:41.445Z,99.90
2019-03-29T21:04:12.320Z,99.90
2019-03-29T21:06:43.258Z,99.90
2019-03-29T21:09:14.301Z,99.90
2019-03-29T21:11:45.310Z,99.90
2019-03-29T21:14:16.207Z,99.90
2019-03-29T21:16:48.552Z,99.90
2019-03-29T21:19:19.580Z,99.90
2019-03-29T21:21:50.531Z,99.90
2019-03-29T21:24:21.523Z,99.90
2019-03-29T21:26:52.408Z,99.90
2019-03-29T21:29:23.350Z,99.90
2019-03-29T21:31:54.276Z,99.90
2019-03-29T21:34:25.113Z,99.90
2019-03-29T21:36:56.128Z,99.90
2019-03-29T21:39:27.001Z,99.90
2019-03-29T21:41:57.929Z,99.90
2019-03-29T21:44:30.301Z,99.90
2019-03-29T21:47:01.241Z,99.90
2019-03-29T21:49:32.343Z,99.90
2019-03-29T21:52:03.221Z,99.90
2019-03-29T21:54:34.160Z,99.90
2019-03-29T21:57:05.137Z,99.90
2019-03-29T21:59:36.074Z,99.90
2019-03-29T22:02:07.147Z,99.90
2019-03-29T22:04:39.052Z,99.90
2019-03-29T22:07:10.053Z,99.90
2019-03-29T22:09:40.924Z,99.90
2019-03-29T22:12:11.878Z,99.90
2019-03-29T22:14:42.800Z,99.90
2019-03-29T22:17:13.818Z,99.90
2019-03-29T22:19:44.851Z,99.90
2019-03-29T22:22:15.861Z,99.90
2019-03-29T22:24:46.656Z,99.90
2019-03-29T22:27:17.672Z,99.90
2019-03-29T22:29:48.946Z,99.90
2019-03-29T22:32:19.893Z,99.90
2019-03-29T22:34:50.888Z,99.90
2019-03-29T22:37:23.266Z,99.90
2019-03-29T22:39:56.080Z,99.90
2019-03-29T22:42:27.027Z,99.90
2019-03-29T22:44:58.028Z,99.90
2019-03-29T22:47:28.893Z,99.90
2019-03-29T22:50:00.053Z,99.90
2019-03-29T22:52:31.153Z,99.90
2019-03-29T22:55:02.072Z,99.90
2019-03-29T22:57:32.988Z,99.90
2019-03-29T23:00:04.058Z,99.90
2019-03-29T23:02:35.113Z,99.90
2019-03-29T23:05:06.201Z,99.90
2019-03-29T23:07:37.126Z,99.90
2019-03-29T23:10:08.176Z,99.90
2019-03-29T23:12:39.188Z,99.90
2019-03-29T23:15:10.459Z,99.90
2019-03-29T23:17:41.508Z,99.90
2019-03-29T23:20:13.060Z,99.90
2019-03-29T23:22:44.089Z,99.90
2019-03-29T23:25:15.250Z,99.90
2019-03-29T23:27:46.185Z,99.90
2019-03-29T23:30:17.698Z,99.90
2019-03-29T23:32:48.664Z,99.90
2019-03-29T23:35:19.607Z,99.90
2019-03-29T23:37:50.549Z,99.90
2019-03-29T23:40:21.489Z,99.90
2019-03-29T23:42:52.496Z,99.90
2019-03-29T23:45:23.361Z,99.90
2019-03-29T23:47:54.312Z,99.90
2019-03-29T23:50:25.241Z,99.90
2019-03-29T23:52:56.177Z,99.90
2019-03-29T23:55:27.186Z,99.90
2019-03-29T23:57:58.167Z,99.90
